createdAt,value
2022-08-16T00:01:24.591Z,100702.75
2022-08-16T00:03:53.023Z,100711.28
2022-08-16T00:06:20.204Z,100718.63
2022-08-16T00:08:47.964Z,100720.38
2022-08-16T00:11:15.536Z,100716.97
2022-08-16T00:13:54.468Z,100719.59
2022-08-16T00:17:06.715Z,100722.69
2022-08-16T00:19:22.933Z,100728.56
2022-08-16T00:21:53.288Z,100728.78
2022-08-16T00:24:31.218Z,100726.94
2022-08-16T00:26:59.571Z,100743.78
2022-08-16T00:29:26.304Z,100746.47
2022-08-16T00:31:59.642Z,100748.94
2022-08-16T00:34:44.220Z,100745.78
2022-08-16T00:37:18.505Z,100748.78
2022-08-16T00:39:56.898Z,100736.59
2022-08-16T00:42:30.595Z,100736.50
2022-08-16T00:45:12.831Z,100733.72
2022-08-16T00:47:49.534Z,100741.94
2022-08-16T00:50:20.701Z,100734.97
2022-08-16T00:52:51.135Z,100738.09
2022-08-16T00:55:22.008Z,100716.69
2022-08-16T00:57:59.723Z,100727.91
2022-08-16T01:00:29.529Z,100723.56
2022-08-16T01:02:59.706Z,100727.59
2022-08-16T01:05:27.346Z,100743.34
2022-08-16T01:07:54.936Z,100741.31
2022-08-16T01:10:31.578Z,100745.41
2022-08-16T01:13:04.509Z,100747.00
2022-08-16T01:15:33.858Z,100749.91
2022-08-16T01:18:01.839Z,100745.44
2022-08-16T01:20:32.970Z,100736.16
2022-08-16T01:23:13.712Z,100731.19
2022-08-16T01:26:00.185Z,100731.78
2022-08-16T01:28:38.654Z,100738.25
2022-08-16T01:31:08.308Z,100735.63
2022-08-16T01:33:35.801Z,100724.59
2022-08-16T01:36:09.382Z,100721.97
2022-08-16T01:38:46.880Z,100723.81
2022-08-16T01:41:22.727Z,100731.78
2022-08-16T01:43:53.905Z,100722.50
2022-08-16T01:46:39.214Z,100720.41
2022-08-16T01:49:43.654Z,100728.56
2022-08-16T01:52:29.619Z,100724.91
2022-08-16T01:54:58.232Z,100716.19
2022-08-16T01:57:26.650Z,100708.66
2022-08-16T01:59:54.656Z,100720.16
2022-08-16T02:02:27.389Z,100686.44
2022-08-16T02:04:57.495Z,100687.75
2022-08-16T02:07:25.637Z,100705.97
2022-08-16T02:09:58.523Z,100701.84
2022-08-16T02:12:49.641Z,100687.47
2022-08-16T02:15:17.135Z,100703.41
2022-08-16T02:17:52.477Z,100688.44
2022-08-16T02:20:20.046Z,100703.25
2022-08-16T02:22:55.262Z,100700.00
2022-08-16T02:25:22.242Z,100685.38
2022-08-16T02:27:51.102Z,100705.06
2022-08-16T02:30:35.840Z,100718.97
2022-08-16T02:33:10.058Z,100711.63
2022-08-16T02:35:53.749Z,100708.31
2022-08-16T02:38:22.828Z,100705.88
2022-08-16T02:40:51.446Z,100701.72
2022-08-16T02:43:21.412Z,100697.78
2022-08-16T02:45:53.542Z,100710.28
2022-08-16T02:48:29.992Z,100707.56
2022-08-16T02:51:06.043Z,100711.28
2022-08-16T02:53:43.393Z,100681.09
2022-08-16T02:56:15.140Z,100700.97
2022-08-16T02:58:44.141Z,100707.34
2022-08-16T03:01:24.972Z,100719.41
2022-08-16T03:04:29.612Z,100722.28
2022-08-16T03:06:48.307Z,100721.38
2022-08-16T03:09:17.830Z,100724.56
2022-08-16T03:11:44.977Z,100713.31
2022-08-16T03:14:12.173Z,100718.91
2022-08-16T03:16:42.288Z,100717.84
2022-08-16T03:19:47.367Z,100708.72
2022-08-16T03:22:28.264Z,100724.72
2022-08-16T03:24:57.944Z,100718.66
2022-08-16T03:27:31.381Z,100715.97
2022-08-16T03:30:25.075Z,100737.41
2022-08-16T03:32:52.213Z,100734.63
2022-08-16T03:35:21.691Z,100740.16
2022-08-16T03:38:02.600Z,100739.00
2022-08-16T03:40:33.157Z,100729.69
2022-08-16T03:43:19.690Z,100731.97
2022-08-16T03:45:49.535Z,100729.75
2022-08-16T03:48:20.888Z,100736.44
2022-08-16T03:51:08.570Z,100740.94
2022-08-16T03:53:37.703Z,100725.88
2022-08-16T03:56:07.511Z,100740.50
2022-08-16T03:58:36.940Z,100739.16
2022-08-16T04:01:05.085Z,100731.69
2022-08-16T04:03:32.790Z,100736.63
2022-08-16T04:05:59.858Z,100739.84
2022-08-16T04:08:31.134Z,100747.94
2022-08-16T04:10:59.023Z,100753.53
2022-08-16T04:14:01.800Z,100749.66
2022-08-16T04:16:27.521Z,100748.88
2022-08-16T04:19:02.807Z,100750.38
2022-08-16T04:21:33.635Z,100760.09
2022-08-16T04:24:02.100Z,100765.34
2022-08-16T04:26:31.028Z,100761.75
2022-08-16T04:29:15.165Z,100777.53
2022-08-16T04:31:56.529Z,100774.72
2022-08-16T04:34:30.792Z,100776.09
2022-08-16T04:36:59.113Z,100765.81
2022-08-16T04:39:46.079Z,100780.91
2022-08-16T04:42:17.968Z,100779.44
2022-08-16T04:44:54.272Z,100783.38
2022-08-16T04:47:31.485Z,100771.75
2022-08-16T04:50:01.272Z,100772.72
2022-08-16T04:52:34.454Z,100771.41
2022-08-16T04:55:08.340Z,100771.03
2022-08-16T04:57:37.055Z,100774.06
2022-08-16T05:00:32.575Z,100787.13
2022-08-16T05:02:56.319Z,100782.84
2022-08-16T05:05:25.880Z,100786.31
2022-08-16T05:08:00.486Z,100784.25
2022-08-16T05:10:29.592Z,100781.69
2022-08-16T05:12:58.262Z,100790.66
2022-08-16T05:15:25.543Z,100793.22
2022-08-16T05:17:58.681Z,100778.31
2022-08-16T05:20:39.130Z,100785.16
2022-08-16T05:23:15.119Z,100781.16
2022-08-16T05:25:48.794Z,100777.22
2022-08-16T05:28:18.624Z,100779.50
2022-08-16T05:30:45.986Z,100779.72
2022-08-16T05:33:18.399Z,100775.00
2022-08-16T05:35:54.976Z,100776.94
2022-08-16T05:38:32.766Z,100779.88
2022-08-16T05:41:07.049Z,100768.00
2022-08-16T05:43:43.765Z,100769.25
2022-08-16T05:46:29.899Z,100763.63
2022-08-16T05:49:08.692Z,100754.94
2022-08-16T05:51:39.821Z,100767.69
2022-08-16T05:54:09.772Z,100761.38
2022-08-16T05:56:39.287Z,100752.69
2022-08-16T05:59:07.010Z,100767.19
2022-08-16T06:01:38.955Z,100757.75
2022-08-16T06:04:13.549Z,100753.56
2022-08-16T06:06:56.930Z,100753.06
2022-08-16T06:09:25.891Z,100771.31
2022-08-16T06:12:11.427Z,100760.41
2022-08-16T06:14:38.081Z,100740.69
2022-08-16T06:17:07.258Z,100749.19
2022-08-16T06:19:33.993Z,100736.16
2022-08-16T06:22:02.626Z,100743.75
2022-08-16T06:24:54.349Z,100741.25
2022-08-16T06:27:15.973Z,100715.13
2022-08-16T06:29:44.673Z,100723.25
2022-08-16T06:32:27.807Z,100723.00
2022-08-16T06:35:02.058Z,100709.41
2022-08-16T06:37:36.945Z,100718.53
2022-08-16T06:40:05.032Z,100715.91
2022-08-16T06:42:47.740Z,100709.97
2022-08-16T06:45:15.938Z,100715.69
2022-08-16T06:47:54.455Z,100702.66
2022-08-16T06:50:28.614Z,100707.59
2022-08-16T06:53:08.609Z,100699.63
2022-08-16T06:55:38.159Z,100704.09
2022-08-16T06:58:08.392Z,100700.19
2022-08-16T07:00:48.725Z,100688.47
2022-08-16T07:03:26.841Z,100684.16
2022-08-16T07:05:56.943Z,100686.78
2022-08-16T07:08:27.431Z,100684.28
2022-08-16T07:10:54.351Z,100699.28
2022-08-16T07:13:43.962Z,100707.00
2022-08-16T07:16:15.474Z,100702.28
2022-08-16T07:19:01.305Z,100678.50
2022-08-16T07:21:28.547Z,100696.66
2022-08-16T07:24:29.469Z,100703.06
2022-08-16T07:26:58.918Z,100683.16
2022-08-16T07:29:31.686Z,100694.38
2022-08-16T07:32:00.527Z,100696.94
2022-08-16T07:34:35.393Z,100684.69
2022-08-16T07:37:09.721Z,100680.13
2022-08-16T07:39:43.305Z,100681.88
2022-08-16T07:42:28.484Z,100679.66
2022-08-16T07:44:58.112Z,100673.44
2022-08-16T07:47:31.609Z,100671.03
2022-08-16T07:49:59.737Z,100684.38
2022-08-16T07:52:29.991Z,100676.13
2022-08-16T07:54:57.715Z,100681.03
2022-08-16T07:57:25.031Z,100668.88
2022-08-16T07:59:52.987Z,100678.72
2022-08-16T08:02:20.946Z,100663.81
2022-08-16T08:04:48.499Z,100682.09
2022-08-16T08:07:16.353Z,100693.66
2022-08-16T08:09:43.962Z,100677.03
2022-08-16T08:12:32.209Z,100682.19
2022-08-16T08:14:59.645Z,100685.25
2022-08-16T08:17:42.812Z,100695.03
2022-08-16T08:20:13.277Z,100687.97
2022-08-16T08:22:51.563Z,100690.72
2022-08-16T08:25:18.490Z,100689.69
2022-08-16T08:27:46.131Z,100690.88
2022-08-16T08:30:51.571Z,100686.47
2022-08-16T08:33:01.463Z,100694.56
2022-08-16T08:35:28.620Z,100686.25
2022-08-16T08:37:56.539Z,100714.78
2022-08-16T08:40:27.232Z,100706.66
2022-08-16T08:42:57.822Z,100698.00
2022-08-16T08:45:46.882Z,100711.66
2022-08-16T08:48:33.124Z,100707.16
2022-08-16T08:51:03.857Z,100707.50
2022-08-16T08:53:30.849Z,100700.97
2022-08-16T08:55:59.276Z,100708.59
2022-08-16T08:58:34.467Z,100712.53
2022-08-16T09:01:03.633Z,100704.53
2022-08-16T09:03:32.353Z,100715.31
2022-08-16T09:06:00.578Z,100723.72
2022-08-16T09:08:27.584Z,100723.34
2022-08-16T09:10:59.279Z,100714.63
2022-08-16T09:13:32.720Z,100719.84
2022-08-16T09:15:59.648Z,100719.81
2022-08-16T09:18:35.361Z,100718.97
2022-08-16T09:21:07.176Z,100719.00
2022-08-16T09:23:37.021Z,100722.50
2022-08-16T09:26:44.399Z,100707.75
2022-08-16T09:29:15.526Z,100723.50
2022-08-16T09:31:41.992Z,100729.56
2022-08-16T09:34:10.513Z,100735.50
2022-08-16T09:36:45.958Z,100732.94
2022-08-16T09:39:15.964Z,100737.66
2022-08-16T09:41:43.198Z,100735.50
2022-08-16T09:45:11.421Z,100744.59
2022-08-16T09:47:10.719Z,100735.28
2022-08-16T09:49:41.032Z,100740.72
2022-08-16T09:52:09.842Z,100735.56
2022-08-16T09:54:37.881Z,100708.03
2022-08-16T09:57:05.117Z,100721.75
2022-08-16T09:59:38.449Z,100732.00
2022-08-16T10:02:26.290Z,100732.56
2022-08-16T10:04:54.908Z,100742.75
2022-08-16T10:07:22.111Z,100740.38
2022-08-16T10:09:54.926Z,100743.50
2022-08-16T10:12:43.808Z,100748.41
2022-08-16T10:15:17.776Z,100736.75
2022-08-16T10:18:01.035Z,100745.78
2022-08-16T10:20:31.751Z,100748.06
2022-08-16T10:23:05.500Z,100749.47
2022-08-16T10:27:20.713Z,100747.41
2022-08-16T10:28:29.109Z,100751.22
2022-08-16T10:31:00.748Z,100746.63
2022-08-16T10:33:33.256Z,100744.06
2022-08-16T10:36:04.041Z,100738.31
2022-08-16T10:38:32.986Z,100745.06
2022-08-16T10:41:00.971Z,100742.97
2022-08-16T10:43:30.979Z,100720.63
2022-08-16T10:46:00.140Z,100745.28
2022-08-16T10:48:29.294Z,100742.56
2022-08-16T10:51:00.536Z,100738.47
2022-08-16T10:53:32.819Z,100738.47
2022-08-16T10:56:06.268Z,100745.88
2022-08-16T10:58:52.374Z,100752.16
2022-08-16T11:01:43.194Z,100726.31
2022-08-16T11:05:04.611Z,100743.03
2022-08-16T11:07:43.304Z,100731.28
2022-08-16T11:09:43.904Z,100748.44
2022-08-16T11:12:14.454Z,100752.31
2022-08-16T11:15:11.320Z,100746.69
2022-08-16T11:17:28.538Z,100754.06
2022-08-16T11:20:36.775Z,100742.16
2022-08-16T11:22:48.565Z,100746.66
2022-08-16T11:28:09.856Z,100749.84
2022-08-16T11:30:39.012Z,100743.53
2022-08-16T11:33:07.144Z,100749.28
2022-08-16T11:38:46.233Z,100752.34
2022-08-16T11:41:09.871Z,100748.28
2022-08-16T11:43:39.149Z,100752.13
2022-08-16T11:46:43.656Z,100765.53
2022-08-16T11:48:56.403Z,100753.28
2022-08-16T11:51:23.045Z,100750.41
2022-08-16T11:53:49.735Z,100766.22
2022-08-16T11:56:28.575Z,100762.56
2022-08-16T11:59:06.329Z,100763.06
2022-08-16T12:01:44.432Z,100777.53
2022-08-16T12:04:22.326Z,100773.63
2022-08-16T12:06:49.956Z,100782.59
2022-08-16T12:09:20.318Z,100771.66
2022-08-16T12:11:47.326Z,100783.16
2022-08-16T12:14:19.715Z,100781.16
2022-08-16T12:16:55.551Z,100777.38
2022-08-16T12:19:35.285Z,100783.09
2022-08-16T12:22:05.870Z,100778.88
2022-08-16T12:24:51.864Z,100776.88
2022-08-16T12:27:23.015Z,100778.19
2022-08-16T12:29:51.716Z,100782.94
2022-08-16T12:32:35.878Z,100779.88
2022-08-16T12:35:10.154Z,100778.59
2022-08-16T12:37:36.847Z,100780.00
2022-08-16T12:40:07.701Z,100785.41
2022-08-16T12:42:54.119Z,100784.13
2022-08-16T12:45:22.877Z,100778.53
2022-08-16T12:48:31.477Z,100785.56
2022-08-16T12:50:56.903Z,100787.78
2022-08-16T12:53:24.176Z,100784.88
2022-08-16T12:55:51.673Z,100782.97
2022-08-16T12:58:48.614Z,100794.78
2022-08-16T13:01:08.138Z,100788.16
2022-08-16T13:03:40.550Z,100793.38
2022-08-16T13:06:08.279Z,100788.66
2022-08-16T13:08:34.888Z,100782.47
2022-08-16T13:11:04.387Z,100790.22
2022-08-16T13:13:33.971Z,100798.03
2022-08-16T13:16:10.728Z,100790.81
2022-08-16T13:18:52.573Z,100797.16
2022-08-16T13:21:20.092Z,100788.34
2022-08-16T13:23:55.470Z,100790.00
2022-08-16T13:26:23.839Z,100792.72
2022-08-16T13:28:50.647Z,100790.09
2022-08-16T13:31:17.400Z,100787.34
2022-08-16T13:33:44.438Z,100785.81
2022-08-16T13:36:21.279Z,100784.41
2022-08-16T13:39:00.277Z,100779.97
2022-08-16T13:41:30.271Z,100780.56
2022-08-16T13:43:59.397Z,100786.63
2022-08-16T13:46:27.815Z,100777.31
2022-08-16T13:48:55.914Z,100782.22
2022-08-16T13:51:24.970Z,100780.16
2022-08-16T13:54:02.589Z,100771.19
2022-08-16T13:56:37.544Z,100781.63
2022-08-16T13:59:19.511Z,100773.94
2022-08-16T14:01:55.272Z,100775.31
2022-08-16T14:04:31.378Z,100781.19
2022-08-16T14:07:00.131Z,100779.59
2022-08-16T14:09:28.514Z,100761.22
2022-08-16T14:11:57.333Z,100771.06
2022-08-16T14:14:29.047Z,100772.13
2022-08-16T14:16:58.114Z,100769.38
2022-08-16T14:19:26.392Z,100781.81
2022-08-16T14:22:14.724Z,100775.66
2022-08-16T14:24:47.469Z,100766.06
2022-08-16T14:27:17.949Z,100781.66
2022-08-16T14:29:49.300Z,100778.94
2022-08-16T14:32:33.320Z,100777.13
2022-08-16T14:35:07.461Z,100774.81
2022-08-16T14:37:35.123Z,100779.13
2022-08-16T14:40:03.389Z,100782.88
2022-08-16T14:42:30.239Z,100774.34
2022-08-16T14:44:57.010Z,100784.63
2022-08-16T14:47:23.663Z,100787.59
2022-08-16T14:49:52.370Z,100784.41
2022-08-16T14:52:44.495Z,100778.97
2022-08-16T14:55:11.674Z,100787.81
2022-08-16T14:57:38.801Z,100778.50
2022-08-16T15:00:11.139Z,100778.91
2022-08-16T15:02:39.315Z,100774.44
2022-08-16T15:05:09.243Z,100782.59
2022-08-16T15:07:36.400Z,100783.34
2022-08-16T15:10:08.624Z,100782.34
2022-08-16T15:12:49.493Z,100783.53
2022-08-16T15:15:20.481Z,100770.97
2022-08-16T15:17:53.842Z,100775.53
2022-08-16T15:20:22.593Z,100770.16
2022-08-16T15:22:50.661Z,100774.59
2022-08-16T15:25:29.241Z,100777.19
2022-08-16T15:27:57.454Z,100785.91
2022-08-16T15:30:57.013Z,100781.19
2022-08-16T15:33:16.889Z,100787.75
2022-08-16T15:35:45.005Z,100784.31
2022-08-16T15:38:56.865Z,100793.75
2022-08-16T15:41:01.195Z,100796.16
2022-08-16T15:43:39.346Z,100795.13
2022-08-16T15:46:35.821Z,100787.22
2022-08-16T15:49:12.103Z,100799.19
2022-08-16T15:51:39.286Z,100801.41
2022-08-16T15:54:21.072Z,100797.50
2022-08-16T15:56:55.170Z,100801.63
2022-08-16T15:59:27.179Z,100794.91
2022-08-16T16:01:55.941Z,100802.03
2022-08-16T16:04:25.744Z,100804.47
2022-08-16T16:06:54.935Z,100796.56
2022-08-16T16:09:21.725Z,100793.97
2022-08-16T16:12:01.418Z,100790.09
2022-08-16T16:14:28.155Z,100797.16
2022-08-16T16:16:55.079Z,100785.53
2022-08-16T16:19:22.961Z,100780.34
2022-08-16T16:21:53.990Z,100782.97
2022-08-16T16:24:23.968Z,100788.81
2022-08-16T16:26:57.513Z,100786.84
2022-08-16T16:29:24.239Z,100783.31
2022-08-16T16:31:59.753Z,100779.31
2022-08-16T16:34:32.365Z,100786.13
2022-08-16T16:37:02.622Z,100780.97
2022-08-16T16:39:32.758Z,100777.88
2022-08-16T16:41:59.997Z,100786.88
2022-08-16T16:44:33.918Z,100782.72
2022-08-16T16:47:03.598Z,100771.34
2022-08-16T16:49:30.223Z,100788.44
2022-08-16T16:52:06.618Z,100781.22
2022-08-16T16:54:35.613Z,100766.94
2022-08-16T16:57:02.474Z,100762.47
2022-08-16T16:59:29.320Z,100780.41
2022-08-16T17:02:41.258Z,100783.00
2022-08-16T17:04:47.314Z,100764.06
2022-08-16T17:07:14.141Z,100778.16
2022-08-16T17:09:41.389Z,100789.19
2022-08-16T17:12:20.074Z,100789.00
2022-08-16T17:14:53.456Z,100778.72
2022-08-16T17:17:20.097Z,100786.31
2022-08-16T17:19:47.264Z,100788.09
2022-08-16T17:22:19.867Z,100771.06
2022-08-16T17:24:50.897Z,100786.72
2022-08-16T17:27:32.503Z,100785.34
2022-08-16T17:30:02.694Z,100784.34
2022-08-16T17:32:33.984Z,100783.78
2022-08-16T17:35:18.856Z,100758.00
2022-08-16T17:37:51.662Z,100770.00
2022-08-16T17:40:26.892Z,100770.31
2022-08-16T17:43:15.457Z,100756.53
2022-08-16T17:45:43.047Z,100770.56
2022-08-16T17:48:09.913Z,100771.84
2022-08-16T17:50:37.098Z,100765.22
2022-08-16T17:53:04.688Z,100763.81
2022-08-16T17:55:34.139Z,100763.13
2022-08-16T17:58:00.829Z,100769.63
2022-08-16T18:00:47.296Z,100769.63
2022-08-16T18:03:17.268Z,100761.06
2022-08-16T18:06:13.107Z,100773.09
2022-08-16T18:08:41.484Z,100771.81
2022-08-16T18:11:12.156Z,100767.75
2022-08-16T18:13:43.059Z,100776.25
2022-08-16T18:16:11.360Z,100782.09
2022-08-16T18:18:38.202Z,100781.38
2022-08-16T18:21:23.652Z,100781.56
2022-08-16T18:23:50.280Z,100782.25
2022-08-16T18:26:17.206Z,100780.91
2022-08-16T18:28:43.947Z,100787.47
2022-08-16T18:31:10.634Z,100794.28
2022-08-16T18:33:43.390Z,100801.31
2022-08-16T18:36:20.090Z,100783.53
2022-08-16T18:38:47.076Z,100795.38
2022-08-16T18:41:13.705Z,100798.13
2022-08-16T18:44:22.256Z,100788.56
2022-08-16T18:46:26.908Z,100800.63
2022-08-16T18:48:53.516Z,100797.06
2022-08-16T18:51:24.997Z,100799.59
2022-08-16T18:53:52.267Z,100803.25
2022-08-16T18:56:18.845Z,100807.47
2022-08-16T18:58:45.636Z,100815.00
2022-08-16T19:01:12.233Z,100806.88
2022-08-16T19:03:38.796Z,100818.69
2022-08-16T19:06:11.459Z,100822.16
2022-08-16T19:08:42.305Z,100826.41
2022-08-16T19:11:13.977Z,100828.47
2022-08-16T19:13:44.233Z,100837.41
2022-08-16T19:16:13.315Z,100835.41
2022-08-16T19:18:40.360Z,100839.81
2022-08-16T19:21:08.888Z,100832.25
2022-08-16T19:23:37.609Z,100841.84
2022-08-16T19:26:24.470Z,100857.06
2022-08-16T19:28:58.865Z,100869.00
2022-08-16T19:31:32.764Z,100869.00
2022-08-16T19:33:59.451Z,100876.22
2022-08-16T19:36:36.673Z,100890.00
2022-08-16T19:39:13.606Z,100886.41
2022-08-16T19:41:44.559Z,100891.88
2022-08-16T19:44:11.449Z,100903.19
2022-08-16T19:46:38.431Z,100907.09
2022-08-16T19:49:05.339Z,100902.81
2022-08-16T19:51:32.019Z,100907.38
2022-08-16T19:53:58.807Z,100931.38
2022-08-16T19:56:26.815Z,100942.03
2022-08-16T20:01:46.673Z,100931.13
2022-08-16T20:04:13.742Z,100952.81
2022-08-16T20:06:43.074Z,100939.25
2022-08-16T20:09:14.874Z,100954.81
2022-08-16T20:11:46.741Z,100952.78
2022-08-16T20:14:24.840Z,100948.69
2022-08-16T20:16:57.729Z,100956.94
2022-08-16T20:19:27.200Z,100946.63
2022-08-16T20:21:54.139Z,100957.22
2022-08-16T20:24:34.044Z,100965.72
2022-08-16T20:27:02.445Z,100951.16
2022-08-16T20:29:29.106Z,100963.28
2022-08-16T20:31:56.217Z,100954.31
2022-08-16T20:34:22.808Z,100961.66
2022-08-16T20:36:49.413Z,100965.00
2022-08-16T20:39:16.693Z,100963.63
2022-08-16T20:41:43.542Z,100952.69
2022-08-16T20:44:11.318Z,100964.50
2022-08-16T20:46:39.061Z,100972.81
2022-08-16T20:49:08.803Z,100977.72
2022-08-16T20:51:46.859Z,100977.72
2022-08-16T20:54:14.691Z,100974.91
2022-08-16T20:56:41.394Z,100983.03
2022-08-16T20:59:07.937Z,100980.75
2022-08-16T21:01:45.824Z,100981.66
2022-08-16T21:04:19.143Z,100975.47
2022-08-16T21:06:54.385Z,100968.44
2022-08-16T21:09:32.558Z,100974.28
2022-08-16T21:12:01.575Z,100986.13
2022-08-16T21:14:29.706Z,100983.13
2022-08-16T21:16:56.561Z,101000.94
2022-08-16T21:19:23.310Z,100999.84
2022-08-16T21:21:50.019Z,101000.78
2022-08-16T21:24:17.170Z,101009.41
2022-08-16T21:26:53.050Z,101005.72
2022-08-16T21:29:22.362Z,101005.03
2022-08-16T21:31:51.673Z,101006.97
2022-08-16T21:34:18.216Z,100990.03
2022-08-16T21:36:44.942Z,101007.75
2022-08-16T21:39:11.596Z,101009.28
2022-08-16T21:41:40.997Z,101002.47
2022-08-16T21:44:08.011Z,101012.34
2022-08-16T21:46:34.656Z,101007.06
2022-08-16T21:49:01.266Z,100988.25
2022-08-16T21:51:27.968Z,100993.31
2022-08-16T21:53:54.480Z,101008.75
2022-08-16T21:56:21.047Z,101006.84
2022-08-16T21:58:52.415Z,101014.66
2022-08-16T22:01:21.109Z,100995.84
2022-08-16T22:03:47.690Z,101000.13
2022-08-16T22:06:14.799Z,101003.19
2022-08-16T22:08:49.293Z,100996.84
2022-08-16T22:11:21.957Z,100996.13
2022-08-16T22:13:51.450Z,100990.03
2022-08-16T22:16:32.052Z,100987.72
2022-08-16T22:19:00.114Z,100987.69
2022-08-16T22:21:27.230Z,100976.16
2022-08-16T22:23:56.981Z,100977.38
2022-08-16T22:26:39.620Z,100977.03
2022-08-16T22:29:13.639Z,100976.16
2022-08-16T22:31:42.047Z,100970.88
2022-08-16T22:34:09.103Z,100974.63
2022-08-16T22:36:36.413Z,100984.88
2022-08-16T22:39:07.186Z,100965.78
2022-08-16T22:41:35.845Z,100975.69
2022-08-16T22:44:04.427Z,100961.06
2022-08-16T22:46:31.799Z,100966.38
2022-08-16T22:48:58.473Z,100973.72
2022-08-16T22:51:26.946Z,100962.91
2022-08-16T22:53:54.743Z,100971.56
2022-08-16T22:56:22.479Z,100957.72
2022-08-16T22:58:49.277Z,100975.41
2022-08-16T23:01:18.075Z,100967.19
2022-08-16T23:03:44.685Z,100962.97
2022-08-16T23:06:12.373Z,100956.34
2022-08-16T23:08:41.334Z,100975.06
2022-08-16T23:11:12.508Z,100973.16
2022-08-16T23:13:50.070Z,100982.19
2022-08-16T23:16:21.989Z,100990.66
2022-08-16T23:18:49.557Z,100987.06
2022-08-16T23:21:18.143Z,100997.31
2022-08-16T23:23:46.713Z,100994.13
2022-08-16T23:26:46.919Z,100975.31
2022-08-16T23:29:04.443Z,100985.44
2022-08-16T23:31:32.619Z,100991.53
2022-08-16T23:33:59.934Z,100989.41
2022-08-16T23:36:26.557Z,100979.53
2022-08-16T23:38:53.233Z,100997.97
2022-08-16T23:41:20.319Z,100995.50
2022-08-16T23:43:47.045Z,100997.50
2022-08-16T23:46:17.017Z,100997.84
2022-08-16T23:49:56.135Z,100987.19
2022-08-16T23:51:31.392Z,101003.94
2022-08-16T23:53:57.996Z,101006.53
2022-08-16T23:56:25.720Z,101002.22
2022-08-16T23:58:54.411Z,101000.66
